Vasiliy Bozhenko — URHP — position and weather

sailwx.info

Track history (hours):
 
Tides and Currents Weather Stations Pressure Air Temp Water Temp Dewpoint Dewpoint Depression Visibility Wind Speed Wind Dir Waves Ship Positions

Vasiliy Bozhenko

Last reported at 2016-Jun-24 04:33 UTC. Time now 2016-Jun-26 02:59 UTC.
Position N 47°55' E 035°07'.

Length 114 m; draft 3.9 m.

Type: Cargo ship. MMSI: 272085000.

Date/timePositionNaut miles runAvg speedWind from/ knotsBaromVisibWave heightAir tempDewpointWater temp
2016-Jun-24 04:33N 47°55' E 035°07'3 2.9
2016-Jun-24 03:33N 47°52' E 035°05'4 4.4
2016-Jun-24 02:33N 47°48' E 035°09'5 5.4
2016-Jun-24 01:33N 47°43' E 035°09'7 6.5
2016-Jun-24 00:29N 47°37' E 035°03'129 4.6
2016-Jun-22 20:26N 46°33' E 032°17'7 6.1
2016-Jun-22 19:19N 46°32' E 032°08'5 6.4
2016-Jun-22 18:34N 46°33' E 032°01'7 6.8
2016-Jun-22 17:34N 46°35' E 031°52'28 6.6
2016-Jun-22 13:18N 46°35' E 031°11'5 7.0
2016-Jun-22 12:34N 46°34' E 031°03'6 6.1
2016-Jun-22 11:34N 46°30' E 030°57'7 7.3
2016-Jun-22 10:34N 46°22' E 030°57'7 7.0
2016-Jun-22 09:34N 46°16' E 030°59'7 7.4
2016-Jun-22 08:34N 46°10' E 031°06'7 6.8
2016-Jun-22 07:32N 46°03' E 031°08'7 7.2
2016-Jun-22 06:34N 45°56' E 031°09'8 7.2
2016-Jun-22 05:26N 45°48' E 031°09'7 7.4
2016-Jun-22 04:34N 45°42' E 031°09'18 7.3
2016-Jun-22 02:07N 45°24' E 031°02'280 6.7
2016-Jun-20 08:07N 40°59' E 028°60'  
Track history (hours):
 
Tides and Currents Weather Stations Pressure Air Temp Water Temp Dewpoint Dewpoint Depression Visibility Wind Speed Wind Dir Waves Ship Positions

Vasiliy Bozhenko

Last reported at 2016-Jun-24 04:33 UTC. Time now 2016-Jun-26 02:59 UTC.
Position N 47°55' E 035°07'.

Length 114 m; draft 3.9 m.

Type: Cargo ship. MMSI: 272085000.

Date/timePositionNaut miles runAvg speedWind from/ knotsBaromVisibWave heightAir tempDewpointWater temp
2016-Jun-24 04:33N 47°55' E 035°07'3 2.9
2016-Jun-24 03:33N 47°52' E 035°05'4 4.4
2016-Jun-24 02:33N 47°48' E 035°09'5 5.4
2016-Jun-24 01:33N 47°43' E 035°09'7 6.5
2016-Jun-24 00:29N 47°37' E 035°03'129 4.6
2016-Jun-22 20:26N 46°33' E 032°17'7 6.1
2016-Jun-22 19:19N 46°32' E 032°08'5 6.4
2016-Jun-22 18:34N 46°33' E 032°01'7 6.8
2016-Jun-22 17:34N 46°35' E 031°52'28 6.6
2016-Jun-22 13:18N 46°35' E 031°11'5 7.0
2016-Jun-22 12:34N 46°34' E 031°03'6 6.1
2016-Jun-22 11:34N 46°30' E 030°57'7 7.3
2016-Jun-22 10:34N 46°22' E 030°57'7 7.0
2016-Jun-22 09:34N 46°16' E 030°59'7 7.4
2016-Jun-22 08:34N 46°10' E 031°06'7 6.8
2016-Jun-22 07:32N 46°03' E 031°08'7 7.2
2016-Jun-22 06:34N 45°56' E 031°09'8 7.2
2016-Jun-22 05:26N 45°48' E 031°09'7 7.4
2016-Jun-22 04:34N 45°42' E 031°09'18 7.3
2016-Jun-22 02:07N 45°24' E 031°02'280 6.7
2016-Jun-20 08:07N 40°59' E 028°60'  

Dump ship's entire track history